Terminal Aerodrome Forecast
Issued by NWS New Orleans/Baton Rouge, LA

Home | Current Version | Previous Version | Text Only | Print | Product List | Glossary On
Versions: 1 2 3 4 5 6 7 8 9 10 11 12 13 14 15 16 17 18 19 20 21 22 23 24 25 26
000
FTUS44 KLIX 242334
TAFNEW
TAF
KNEW 242334Z 2500/2524 20008KT P6SM SCT090
     FM250300 22007KT P6SM BKN060
     FM250600 23007KT P6SM VCSH BKN015
     FM250800 31014G25KT P6SM VCSH BKN015
     FM250900 33018G31KT P6SM BKN030
     FM251000 34018G32KT P6SM BKN080
     FM251500 36013G21KT P6SM SKC=

USA.gov is the U.S. government's official web portal to all federal, state and local government web resources and services.